sensor_id;sensor_type;location;lat;lon;timestamp;pressure;altitude;pressure_sealevel;temperature;humidity
48964;BME280;34776;48.180;16.420;2022-09-21T00:01:21;100438.66;;;9.99;76.34
48964;BME280;34776;48.180;16.420;2022-09-21T00:03:50;100442.94;;;10.03;76.03
48964;BME280;34776;48.180;16.420;2022-09-21T00:06:18;100450.78;;;10.06;75.95
48964;BME280;34776;48.180;16.420;2022-09-21T00:08:45;100434.88;;;10.06;75.47
48964;BME280;34776;48.180;16.420;2022-09-21T00:11:12;100431.28;;;10.07;75.48
48964;BME280;34776;48.180;16.420;2022-09-21T00:13:38;100440.03;;;10.09;75.31
48964;BME280;34776;48.180;16.420;2022-09-21T00:16:05;100441.75;;;10.10;75.28
48964;BME280;34776;48.180;16.420;2022-09-21T00:18:31;100441.66;;;10.13;74.87
48964;BME280;34776;48.180;16.420;2022-09-21T00:20:57;100443.31;;;10.15;74.53
48964;BME280;34776;48.180;16.420;2022-09-21T00:23:22;100444.97;;;10.18;74.68
48964;BME280;34776;48.180;16.420;2022-09-21T00:25:48;100436.84;;;10.23;74.29
48964;BME280;34776;48.180;16.420;2022-09-21T00:28:14;100428.69;;;10.27;74.12
48964;BME280;34776;48.180;16.420;2022-09-21T00:30:40;100429.44;;;10.31;73.45
48964;BME280;34776;48.180;16.420;2022-09-21T00:33:06;100433.78;;;10.33;73.04
48964;BME280;34776;48.180;16.420;2022-09-21T00:35:31;100426.63;;;10.35;73.23
48964;BME280;34776;48.180;16.420;2022-09-21T00:38:01;100424.03;;;10.34;72.64
48964;BME280;34776;48.180;16.420;2022-09-21T00:40:27;100419.56;;;10.34;72.88
48964;BME280;34776;48.180;16.420;2022-09-21T00:42:53;100425.81;;;10.33;72.75
48964;BME280;34776;48.180;16.420;2022-09-21T00:45:18;100430.34;;;10.31;72.84
48964;BME280;34776;48.180;16.420;2022-09-21T00:47:49;100435.66;;;10.31;72.90
48964;BME280;34776;48.180;16.420;2022-09-21T00:50:19;100430.34;;;10.31;73.11
48964;BME280;34776;48.180;16.420;2022-09-21T00:52:50;100433.06;;;10.28;73.07
48964;BME280;34776;48.180;16.420;2022-09-21T00:57:48;100429.53;;;10.28;73.18
48964;BME280;34776;48.180;16.420;2022-09-21T01:00:16;100426.94;;;10.26;73.11
48964;BME280;34776;48.180;16.420;2022-09-21T01:02:42;100429.75;;;10.23;72.95
48964;BME280;34776;48.180;16.420;2022-09-21T01:05:08;100428.13;;;10.19;73.13
48964;BME280;34776;48.180;16.420;2022-09-21T01:07:36;100436.19;;;10.16;73.56
48964;BME280;34776;48.180;16.420;2022-09-21T01:10:07;100431.03;;;10.13;73.61
48964;BME280;34776;48.180;16.420;2022-09-21T01:18:11;100431.50;;;10.01;73.30
48964;BME280;34776;48.180;16.420;2022-09-21T01:20:52;100430.59;;;10.02;73.54
48964;BME280;34776;48.180;16.420;2022-09-21T01:26:32;100436.94;;;9.98;73.80
48964;BME280;34776;48.180;16.420;2022-09-21T01:29:15;100435.19;;;9.96;73.81
48964;BME280;34776;48.180;16.420;2022-09-21T01:32:05;100435.19;;;9.96;73.45
48964;BME280;34776;48.180;16.420;2022-09-21T01:34:37;100440.41;;;10.00;73.45
48964;BME280;34776;48.180;16.420;2022-09-21T01:37:30;100446.63;;;9.99;73.43
48964;BME280;34776;48.180;16.420;2022-09-21T01:40:00;100436.94;;;9.98;73.76
48964;BME280;34776;48.180;16.420;2022-09-21T01:42:29;100448.44;;;9.98;73.91
48964;BME280;34776;48.180;16.420;2022-09-21T01:44:58;100452.75;;;10.01;73.70
48964;BME280;34776;48.180;16.420;2022-09-21T01:47:26;100457.00;;;10.05;73.75
48964;BME280;34776;48.180;16.420;2022-09-21T01:49:57;100459.53;;;10.08;73.22
48964;BME280;34776;48.180;16.420;2022-09-21T01:52:32;100456.88;;;10.08;73.35
48964;BME280;34776;48.180;16.420;2022-09-21T01:55:05;100450.53;;;10.12;73.67
48964;BME280;34776;48.180;16.420;2022-09-21T01:57:47;100462.03;;;10.12;73.21
48964;BME280;34776;48.180;16.420;2022-09-21T02:00:14;100459.28;;;10.14;73.24
48964;BME280;34776;48.180;16.420;2022-09-21T02:02:53;100457.69;;;10.10;73.37
48964;BME280;34776;48.180;16.420;2022-09-21T02:05:21;100457.69;;;10.10;73.57
48964;BME280;34776;48.180;16.420;2022-09-21T02:07:48;100463.00;;;10.10;73.41
48964;BME280;34776;48.180;16.420;2022-09-21T02:10:20;100461.28;;;10.09;73.48
48964;BME280;34776;48.180;16.420;2022-09-21T02:12:48;100465.72;;;10.08;73.64
48964;BME280;34776;48.180;16.420;2022-09-21T02:15:21;100464.84;;;10.08;73.46
48964;BME280;34776;48.180;16.420;2022-09-21T02:18:02;100457.69;;;10.10;73.42
48964;BME280;34776;48.180;16.420;2022-09-21T02:20:35;100463.75;;;10.13;73.39
48964;BME280;34776;48.180;16.420;2022-09-21T02:23:11;100462.75;;;10.16;73.22
48964;BME280;34776;48.180;16.420;2022-09-21T02:28:28;100473.38;;;10.16;73.03
48964;BME280;34776;48.180;16.420;2022-09-21T02:31:05;100465.66;;;10.10;72.94
48964;BME280;34776;48.180;16.420;2022-09-21T02:33:43;100467.63;;;10.05;72.96
48964;BME280;34776;48.180;16.420;2022-09-21T02:36:25;100466.03;;;10.01;72.90
48964;BME280;34776;48.180;16.420;2022-09-21T02:39:05;100475.03;;;9.96;72.56
48964;BME280;34776;48.180;16.420;2022-09-21T02:41:42;100467.06;;;9.96;72.85
48964;BME280;34776;48.180;16.420;2022-09-21T02:44:21;100470.53;;;9.99;72.84
48964;BME280;34776;48.180;16.420;2022-09-21T02:46:53;100468.81;;;9.98;72.97
48964;BME280;34776;48.180;16.420;2022-09-21T02:49:24;100470.66;;;9.95;72.84
48964;BME280;34776;48.180;16.420;2022-09-21T02:51:55;100479.44;;;9.98;72.84
48964;BME280;34776;48.180;16.420;2022-09-21T02:54:26;100476.78;;;9.98;72.50
48964;BME280;34776;48.180;16.420;2022-09-21T02:56:54;100471.47;;;9.98;72.33
48964;BME280;34776;48.180;16.420;2022-09-21T02:59:21;100474.13;;;9.98;72.34
48964;BME280;34776;48.180;16.420;2022-09-21T03:01:48;100479.28;;;10.01;72.29
48964;BME280;34776;48.180;16.420;2022-09-21T03:04:13;100481.03;;;10.02;71.92
48964;BME280;34776;48.180;16.420;2022-09-21T03:06:38;100478.31;;;10.03;72.08
48964;BME280;34776;48.180;16.420;2022-09-21T03:09:05;100466.97;;;10.00;72.12
48964;BME280;34776;48.180;16.420;2022-09-21T03:11:31;100481.03;;;10.02;72.11
48964;BME280;34776;48.180;16.420;2022-09-21T03:13:56;100473.06;;;10.02;71.72
48964;BME280;34776;48.180;16.420;2022-09-21T03:16:22;100481.84;;;10.04;71.97
48964;BME280;34776;48.180;16.420;2022-09-21T03:18:49;100481.03;;;10.02;71.71
48964;BME280;34776;48.180;16.420;2022-09-21T03:21:15;100481.16;;;9.99;71.64
48964;BME280;34776;48.180;16.420;2022-09-21T03:23:40;100484.75;;;9.98;71.69
48964;BME280;34776;48.180;16.420;2022-09-21T03:26:06;100492.00;;;9.92;71.65
48964;BME280;34776;48.180;16.420;2022-09-21T03:28:31;100499.28;;;9.87;71.75
48964;BME280;34776;48.180;16.420;2022-09-21T03:30:56;100490.50;;;9.85;71.69
48964;BME280;34776;48.180;16.420;2022-09-21T03:33:22;100499.38;;;9.84;71.85
48964;BME280;34776;48.180;16.420;2022-09-21T03:35:49;100485.28;;;9.82;71.67
48964;BME280;34776;48.180;16.420;2022-09-21T03:38:16;100487.13;;;9.80;72.05
48964;BME280;34776;48.180;16.420;2022-09-21T03:40:45;100489.13;;;9.75;72.07
48964;BME280;34776;48.180;16.420;2022-09-21T03:43:12;100491.88;;;9.72;72.22
48964;BME280;34776;48.180;16.420;2022-09-21T03:45:37;100490.25;;;9.68;72.16
48964;BME280;34776;48.180;16.420;2022-09-21T03:48:05;100501.75;;;9.68;72.55
48964;BME280;34776;48.180;16.420;2022-09-21T03:50:30;100497.34;;;9.67;72.27
48964;BME280;34776;48.180;16.420;2022-09-21T03:52:56;100501.84;;;9.65;72.58
48964;BME280;34776;48.180;16.420;2022-09-21T03:55:21;100498.34;;;9.65;72.76
48964;BME280;34776;48.180;16.420;2022-09-21T03:57:47;100504.63;;;9.62;72.72
48964;BME280;34776;48.180;16.420;2022-09-21T04:00:13;100501.16;;;9.60;73.02
48964;BME280;34776;48.180;16.420;2022-09-21T04:02:39;100509.16;;;9.59;73.34
48964;BME280;34776;48.180;16.420;2022-09-21T04:05:06;100510.25;;;9.53;73.32
48964;BME280;34776;48.180;16.420;2022-09-21T04:07:32;100506.72;;;9.52;73.57
48964;BME280;34776;48.180;16.420;2022-09-21T04:09:59;100507.66;;;9.51;73.56
48964;BME280;34776;48.180;16.420;2022-09-21T04:12:25;100514.81;;;9.49;73.61
48964;BME280;34776;48.180;16.420;2022-09-21T04:14:51;100511.34;;;9.47;73.83
48964;BME280;34776;48.180;16.420;2022-09-21T04:17:16;100522.00;;;9.46;73.86
48964;BME280;34776;48.180;16.420;2022-09-21T04:19:42;100527.34;;;9.44;74.10
48964;BME280;34776;48.180;16.420;2022-09-21T04:22:10;100529.19;;;9.42;74.17
48964;BME280;34776;48.180;16.420;2022-09-21T04:24:36;100531.91;;;9.41;74.22
48964;BME280;34776;48.180;16.420;2022-09-21T04:27:06;100537.19;;;9.41;74.27
48964;BME280;34776;48.180;16.420;2022-09-21T04:29:31;100527.34;;;9.44;74.40
48964;BME280;34776;48.180;16.420;2022-09-21T04:31:57;100546.03;;;9.41;74.35
48964;BME280;34776;48.180;16.420;2022-09-21T04:34:22;100544.38;;;9.39;74.40
48964;BME280;34776;48.180;16.420;2022-09-21T04:36:47;100545.31;;;9.36;74.69
48964;BME280;34776;48.180;16.420;2022-09-21T04:39:13;100548.88;;;9.37;74.53
48964;BME280;34776;48.180;16.420;2022-09-21T04:41:38;100552.47;;;9.34;74.79
48964;BME280;34776;48.180;16.420;2022-09-21T04:44:04;100552.47;;;9.34;74.99
48964;BME280;34776;48.180;16.420;2022-09-21T04:46:29;100552.47;;;9.34;74.91
48964;BME280;34776;48.180;16.420;2022-09-21T04:48:54;100553.28;;;9.36;74.94
48964;BME280;34776;48.180;16.420;2022-09-21T04:51:20;100564.72;;;9.38;74.91
48964;BME280;34776;48.180;16.420;2022-09-21T04:53:45;100559.41;;;9.38;75.10
48964;BME280;34776;48.180;16.420;2022-09-21T04:56:14;100559.31;;;9.41;74.95
48964;BME280;34776;48.180;16.420;2022-09-21T04:58:40;100559.31;;;9.41;74.91
48964;BME280;34776;48.180;16.420;2022-09-21T05:01:07;100564.53;;;9.43;75.09
48964;BME280;34776;48.180;16.420;2022-09-21T05:03:33;100561.84;;;9.44;74.99
48964;BME280;34776;48.180;16.420;2022-09-21T05:05:59;100558.38;;;9.42;75.17
48964;BME280;34776;48.180;16.420;2022-09-21T05:08:25;100567.19;;;9.43;75.32
48964;BME280;34776;48.180;16.420;2022-09-21T05:11:12;100559.09;;;9.47;75.59
48964;BME280;34776;48.180;16.420;2022-09-21T05:13:38;100566.13;;;9.48;75.63
48964;BME280;34776;48.180;16.420;2022-09-21T05:16:04;100571.44;;;9.48;75.86
48964;BME280;34776;48.180;16.420;2022-09-21T05:18:30;100574.00;;;9.51;75.93
48964;BME280;34776;48.180;16.420;2022-09-21T05:20:57;100571.13;;;9.58;75.86
48964;BME280;34776;48.180;16.420;2022-09-21T05:23:23;100579.78;;;9.63;75.61
48964;BME280;34776;48.180;16.420;2022-09-21T05:25:49;100569.16;;;9.63;75.58
48964;BME280;34776;48.180;16.420;2022-09-21T05:28:18;100570.78;;;9.67;75.67
48964;BME280;34776;48.180;16.420;2022-09-21T05:30:47;100582.09;;;9.72;75.67
48964;BME280;34776;48.180;16.420;2022-09-21T05:33:18;100572.06;;;9.80;75.37
48964;BME280;34776;48.180;16.420;2022-09-21T05:36:04;100578.84;;;9.89;75.19
48964;BME280;34776;48.180;16.420;2022-09-21T05:38:35;100577.81;;;9.93;75.08
48964;BME280;34776;48.180;16.420;2022-09-21T05:41:00;100578.56;;;9.96;75.03
48964;BME280;34776;48.180;16.420;2022-09-21T05:43:26;100579.44;;;9.97;74.85
48964;BME280;34776;48.180;16.420;2022-09-21T05:46:10;100582.03;;;9.99;74.65
48964;BME280;34776;48.180;16.420;2022-09-21T05:48:50;100583.66;;;10.03;74.32
48964;BME280;34776;48.180;16.420;2022-09-21T06:00:13;100597.06;;;10.23;73.02
48964;BME280;34776;48.180;16.420;2022-09-21T06:05:39;100590.88;;;10.48;72.69
48964;BME280;34776;48.180;16.420;2022-09-21T06:08:05;100590.50;;;10.57;72.14
48964;BME280;34776;48.180;16.420;2022-09-21T06:10:33;100597.19;;;10.67;71.97
48964;BME280;34776;48.180;16.420;2022-09-21T06:12:58;100598.31;;;10.84;71.50
48964;BME280;34776;48.180;16.420;2022-09-21T06:15:24;100593.84;;;11.06;71.06
48964;BME280;34776;48.180;16.420;2022-09-21T06:17:50;100591.50;;;11.21;70.18
48964;BME280;34776;48.180;16.420;2022-09-21T06:20:16;100594.03;;;11.24;69.76
48964;BME280;34776;48.180;16.420;2022-09-21T06:22:41;100592.63;;;11.35;69.51
48964;BME280;34776;48.180;16.420;2022-09-21T06:25:07;100584.88;;;11.51;69.34
48964;BME280;34776;48.180;16.420;2022-09-21T06:27:32;100595.94;;;11.63;68.47
48964;BME280;34776;48.180;16.420;2022-09-21T06:29:58;100587.66;;;11.69;68.12
48964;BME280;34776;48.180;16.420;2022-09-21T06:32:23;100613.78;;;11.81;68.04
48964;BME280;34776;48.180;16.420;2022-09-21T06:34:49;100602.00;;;11.87;67.03
48964;BME280;34776;48.180;16.420;2022-09-21T06:37:14;100597.94;;;11.98;66.73
48964;BME280;34776;48.180;16.420;2022-09-21T06:39:40;100602.06;;;12.06;66.20
48964;BME280;34776;48.180;16.420;2022-09-21T06:42:05;100601.13;;;12.07;65.65
48964;BME280;34776;48.180;16.420;2022-09-21T06:44:30;100609.84;;;12.10;65.32
48964;BME280;34776;48.180;16.420;2022-09-21T06:46:56;100612.81;;;12.23;65.39
48964;BME280;34776;48.180;16.420;2022-09-21T06:49:21;100621.28;;;12.52;65.11
48964;BME280;34776;48.180;16.420;2022-09-21T06:51:47;100620.13;;;12.76;64.89
48964;BME280;34776;48.180;16.420;2022-09-21T06:54:12;100626.16;;;12.99;63.86
48964;BME280;34776;48.180;16.420;2022-09-21T06:56:38;100623.38;;;13.19;63.77
48964;BME280;34776;48.180;16.420;2022-09-21T06:59:03;100625.28;;;13.17;62.48
48964;BME280;34776;48.180;16.420;2022-09-21T07:01:29;100630.06;;;13.11;63.41
48964;BME280;34776;48.180;16.420;2022-09-21T07:03:54;100629.59;;;13.20;62.82
48964;BME280;34776;48.180;16.420;2022-09-21T07:06:19;100632.59;;;13.50;62.32
48964;BME280;34776;48.180;16.420;2022-09-21T07:08:46;100627.25;;;13.50;61.88
48964;BME280;34776;48.180;16.420;2022-09-21T07:11:12;100630.34;;;13.58;61.22
48964;BME280;34776;48.180;16.420;2022-09-21T07:13:39;100631.00;;;13.46;60.94
48964;BME280;34776;48.180;16.420;2022-09-21T07:16:06;100631.75;;;13.31;61.75
48964;BME280;34776;48.180;16.420;2022-09-21T07:18:36;100636.78;;;13.37;61.69
48964;BME280;34776;48.180;16.420;2022-09-21T07:21:04;100638.78;;;13.68;61.06
48964;BME280;34776;48.180;16.420;2022-09-21T07:23:30;100639.28;;;15.40;58.22
48964;BME280;34776;48.180;16.420;2022-09-21T07:26:00;100638.44;;;17.80;53.82
48964;BME280;34776;48.180;16.420;2022-09-21T07:28:26;100627.19;;;20.10;49.62
48964;BME280;34776;48.180;16.420;2022-09-21T07:30:51;100632.28;;;22.63;45.16
48964;BME280;34776;48.180;16.420;2022-09-21T07:33:17;100633.84;;;22.65;42.68
48964;BME280;34776;48.180;16.420;2022-09-21T07:35:50;100637.00;;;20.11;44.10
48964;BME280;34776;48.180;16.420;2022-09-21T07:38:16;100643.75;;;18.84;48.23
48964;BME280;34776;48.180;16.420;2022-09-21T07:40:41;100645.38;;;17.97;49.34
48964;BME280;34776;48.180;16.420;2022-09-21T07:43:06;100639.22;;;17.15;50.23
48964;BME280;34776;48.180;16.420;2022-09-21T07:45:32;100639.00;;;16.48;51.63
48964;BME280;34776;48.180;16.420;2022-09-21T07:48:02;100648.06;;;15.88;52.72
48964;BME280;34776;48.180;16.420;2022-09-21T07:50:28;100641.97;;;16.29;52.46
48964;BME280;34776;48.180;16.420;2022-09-21T07:52:53;100643.50;;;16.19;52.36
48964;BME280;34776;48.180;16.420;2022-09-21T07:55:18;100645.69;;;16.12;52.50
48964;BME280;34776;48.180;16.420;2022-09-21T07:57:44;100639.50;;;16.40;52.58
48964;BME280;34776;48.180;16.420;2022-09-21T08:00:28;100646.34;;;17.16;49.92
48964;BME280;34776;48.180;16.420;2022-09-21T08:02:57;100650.34;;;16.68;51.19
48964;BME280;34776;48.180;16.420;2022-09-21T08:05:23;100651.56;;;16.48;51.59
48964;BME280;34776;48.180;16.420;2022-09-21T08:07:48;100649.56;;;16.37;51.57
48964;BME280;34776;48.180;16.420;2022-09-21T08:10:13;100645.66;;;16.42;51.35
48964;BME280;34776;48.180;16.420;2022-09-21T08:12:39;100646.69;;;16.54;51.71
48964;BME280;34776;48.180;16.420;2022-09-21T08:15:04;100640.25;;;17.54;50.81
48964;BME280;34776;48.180;16.420;2022-09-21T08:17:30;100644.66;;;19.57;47.45
48964;BME280;34776;48.180;16.420;2022-09-21T08:19:55;100642.34;;;19.88;45.81
48964;BME280;34776;48.180;16.420;2022-09-21T08:22:21;100634.97;;;19.79;46.53
48964;BME280;34776;48.180;16.420;2022-09-21T08:24:48;100640.25;;;20.50;45.26
48964;BME280;34776;48.180;16.420;2022-09-21T08:27:14;100643.31;;;19.63;45.81
48964;BME280;34776;48.180;16.420;2022-09-21T08:29:41;100647.69;;;18.42;46.72
48964;BME280;34776;48.180;16.420;2022-09-21T08:32:07;100652.41;;;19.62;46.87
48964;BME280;34776;48.180;16.420;2022-09-21T08:34:32;100640.50;;;20.80;44.50
48964;BME280;34776;48.180;16.420;2022-09-21T08:36:58;100635.00;;;20.71;43.67
48964;BME280;34776;48.180;16.420;2022-09-21T08:39:23;100643.13;;;21.14;44.44
48964;BME280;34776;48.180;16.420;2022-09-21T08:47:09;100634.25;;;21.88;42.04
48964;BME280;34776;48.180;16.420;2022-09-21T08:49:38;100645.66;;;20.50;42.53
48964;BME280;34776;48.180;16.420;2022-09-21T08:52:10;100648.50;;;18.68;44.99
48964;BME280;34776;48.180;16.420;2022-09-21T08:57:12;100646.94;;;17.34;47.75
48964;BME280;34776;48.180;16.420;2022-09-21T08:59:43;100649.16;;;17.55;48.40
48964;BME280;34776;48.180;16.420;2022-09-21T09:08:07;100638.28;;;17.83;46.54
48964;BME280;34776;48.180;16.420;2022-09-21T09:10:40;100641.06;;;17.42;47.62
48964;BME280;34776;48.180;16.420;2022-09-21T09:15:59;100644.63;;;17.55;47.55
48964;BME280;34776;48.180;16.420;2022-09-21T09:18:44;100641.31;;;18.04;46.28
48964;BME280;34776;48.180;16.420;2022-09-21T09:21:34;100631.09;;;18.22;45.31
48964;BME280;34776;48.180;16.420;2022-09-21T09:24:10;100644.97;;;18.55;46.87
48964;BME280;34776;48.180;16.420;2022-09-21T09:27:03;100627.75;;;18.44;45.22
48964;BME280;34776;48.180;16.420;2022-09-21T09:29:40;100642.00;;;18.21;46.07
48964;BME280;34776;48.180;16.420;2022-09-21T09:32:13;100634.16;;;17.78;46.72
48964;BME280;34776;48.180;16.420;2022-09-21T09:34:47;100643.19;;;17.37;45.78
48964;BME280;34776;48.180;16.420;2022-09-21T09:37:19;100642.56;;;16.92;48.01
48964;BME280;34776;48.180;16.420;2022-09-21T09:39:53;100635.00;;;16.84;48.35
48964;BME280;34776;48.180;16.420;2022-09-21T09:48:12;100631.34;;;16.56;48.82
48964;BME280;34776;48.180;16.420;2022-09-21T09:50:42;100635.69;;;16.44;49.50
48964;BME280;34776;48.180;16.420;2022-09-21T09:53:12;100641.59;;;16.35;49.67
48964;BME280;34776;48.180;16.420;2022-09-21T09:55:53;100634.78;;;16.44;49.55
48964;BME280;34776;48.180;16.420;2022-09-21T10:01:03;100623.00;;;16.90;49.50
48964;BME280;34776;48.180;16.420;2022-09-21T10:03:28;100641.78;;;17.31;49.07
48964;BME280;34776;48.180;16.420;2022-09-21T10:05:54;100624.22;;;17.53;47.93
48964;BME280;34776;48.180;16.420;2022-09-21T10:08:40;100628.09;;;17.61;46.26
48964;BME280;34776;48.180;16.420;2022-09-21T10:11:07;100628.50;;;17.55;47.79
48964;BME280;34776;48.180;16.420;2022-09-21T10:13:34;100621.88;;;17.74;48.03
48964;BME280;34776;48.180;16.420;2022-09-21T10:16:10;100616.88;;;17.95;47.22
48964;BME280;34776;48.180;16.420;2022-09-21T10:18:57;100614.66;;;18.27;46.55
48964;BME280;34776;48.180;16.420;2022-09-21T10:23:59;100605.38;;;18.94;45.39
48964;BME280;34776;48.180;16.420;2022-09-21T10:27:14;100603.00;;;18.39;44.65
48964;BME280;34776;48.180;16.420;2022-09-21T10:29:45;100606.78;;;17.85;46.29
48964;BME280;34776;48.180;16.420;2022-09-21T10:34:37;100601.63;;;17.15;48.76
48964;BME280;34776;48.180;16.420;2022-09-21T10:37:27;100607.56;;;16.79;49.61
48964;BME280;34776;48.180;16.420;2022-09-21T10:39:53;100598.13;;;16.44;49.12
48964;BME280;34776;48.180;16.420;2022-09-21T10:42:19;100594.50;;;16.02;49.17
48964;BME280;34776;48.180;16.420;2022-09-21T10:44:50;100597.06;;;16.04;50.13
48964;BME280;34776;48.180;16.420;2022-09-21T10:50:00;100600.81;;;16.59;49.72
48964;BME280;34776;48.180;16.420;2022-09-21T10:52:41;100598.84;;;16.90;49.01
48964;BME280;34776;48.180;16.420;2022-09-21T10:55:15;100591.94;;;17.40;47.46
48964;BME280;34776;48.180;16.420;2022-09-21T10:57:41;100590.38;;;17.63;47.52
48964;BME280;34776;48.180;16.420;2022-09-21T11:02:45;100582.44;;;18.51;45.25
48964;BME280;34776;48.180;16.420;2022-09-21T11:05:24;100588.75;;;19.00;42.64
48964;BME280;34776;48.180;16.420;2022-09-21T11:07:55;100591.88;;;19.31;42.81
48964;BME280;34776;48.180;16.420;2022-09-21T11:13:28;100587.28;;;17.82;42.22
48964;BME280;34776;48.180;16.420;2022-09-21T11:16:24;100586.97;;;17.34;43.04
48964;BME280;34776;48.180;16.420;2022-09-21T11:21:56;100585.72;;;18.80;42.46
48964;BME280;34776;48.180;16.420;2022-09-21T11:40:28;100575.69;;;20.46;37.17
48964;BME280;34776;48.180;16.420;2022-09-21T11:56:48;100552.13;;;19.92;38.47
48964;BME280;34776;48.180;16.420;2022-09-21T11:59:28;100563.53;;;20.63;36.92
48964;BME280;34776;48.180;16.420;2022-09-21T12:04:48;100549.41;;;19.81;37.47
48964;BME280;34776;48.180;16.420;2022-09-21T12:07:45;100560.41;;;18.70;39.34
48964;BME280;34776;48.180;16.420;2022-09-21T12:10:37;100546.88;;;17.96;41.49
48964;BME280;34776;48.180;16.420;2022-09-21T12:18:33;100559.78;;;18.17;45.48
48964;BME280;34776;48.180;16.420;2022-09-21T12:21:27;100558.75;;;18.93;44.04
48964;BME280;34776;48.180;16.420;2022-09-21T12:24:00;100541.25;;;19.70;43.03
48964;BME280;34776;48.180;16.420;2022-09-21T12:26:52;100543.03;;;20.16;39.93
48964;BME280;34776;48.180;16.420;2022-09-21T12:29:33;100545.63;;;20.17;40.44
48964;BME280;34776;48.180;16.420;2022-09-21T12:35:03;100537.50;;;21.06;38.69
48964;BME280;34776;48.180;16.420;2022-09-21T12:37:38;100537.22;;;21.41;38.07
48964;BME280;34776;48.180;16.420;2022-09-21T12:46:10;100523.97;;;21.17;38.62
48964;BME280;34776;48.180;16.420;2022-09-21T12:48:38;100523.44;;;21.23;40.21
48964;BME280;34776;48.180;16.420;2022-09-21T12:53:47;100524.03;;;20.62;40.43
48964;BME280;34776;48.180;16.420;2022-09-21T13:01:50;100530.91;;;19.41;41.27
48964;BME280;34776;48.180;16.420;2022-09-21T13:04:39;100521.94;;;18.81;42.18
48964;BME280;34776;48.180;16.420;2022-09-21T13:09:57;100529.75;;;18.60;43.36
48964;BME280;34776;48.180;16.420;2022-09-21T13:12:27;100529.63;;;18.37;43.39
48964;BME280;34776;48.180;16.420;2022-09-21T13:15:12;100518.00;;;18.24;41.94
48964;BME280;34776;48.180;16.420;2022-09-21T13:17:39;100530.28;;;18.28;42.59
48964;BME280;34776;48.180;16.420;2022-09-21T13:20:17;100517.13;;;18.36;41.30
48964;BME280;34776;48.180;16.420;2022-09-21T13:22:44;100521.16;;;18.55;42.30
48964;BME280;34776;48.180;16.420;2022-09-21T13:25:21;100520.09;;;18.81;41.06
48964;BME280;34776;48.180;16.420;2022-09-21T13:30:44;100512.69;;;19.20;41.03
48964;BME280;34776;48.180;16.420;2022-09-21T13:43:44;100508.22;;;17.72;44.68
48964;BME280;34776;48.180;16.420;2022-09-21T13:48:57;100508.16;;;17.99;45.02
48964;BME280;34776;48.180;16.420;2022-09-21T13:51:24;100510.75;;;18.00;44.54
48964;BME280;34776;48.180;16.420;2022-09-21T13:53:54;100510.50;;;18.03;43.92
48964;BME280;34776;48.180;16.420;2022-09-21T13:56:24;100503.41;;;18.02;44.58
48964;BME280;34776;48.180;16.420;2022-09-21T13:58:52;100502.09;;;18.21;44.49
48964;BME280;34776;48.180;16.420;2022-09-21T14:01:29;100497.16;;;18.15;44.86
48964;BME280;34776;48.180;16.420;2022-09-21T14:03:59;100499.75;;;18.03;45.24
48964;BME280;34776;48.180;16.420;2022-09-21T14:06:30;100501.41;;;17.93;45.31
48964;BME280;34776;48.180;16.420;2022-09-21T14:09:06;100496.56;;;17.85;45.31
48964;BME280;34776;48.180;16.420;2022-09-21T14:11:36;100487.28;;;17.77;45.87
48964;BME280;34776;48.180;16.420;2022-09-21T14:14:24;100492.88;;;17.74;45.18
48964;BME280;34776;48.180;16.420;2022-09-21T14:16:54;100492.44;;;17.67;45.68
48964;BME280;34776;48.180;16.420;2022-09-21T14:27:15;100490.31;;;17.07;46.41
48964;BME280;34776;48.180;16.420;2022-09-21T14:33:01;100484.63;;;17.11;45.55
48964;BME280;34776;48.180;16.420;2022-09-21T14:35:37;100492.25;;;16.77;46.23
48964;BME280;34776;48.180;16.420;2022-09-21T14:38:13;100487.28;;;16.71;46.45
48964;BME280;34776;48.180;16.420;2022-09-21T14:40:46;100495.59;;;16.54;46.99
48964;BME280;34776;48.180;16.420;2022-09-21T14:43:33;100489.59;;;16.36;47.86
48964;BME280;34776;48.180;16.420;2022-09-21T14:49:07;100495.97;;;16.48;48.24
48964;BME280;34776;48.180;16.420;2022-09-21T14:55:06;100504.41;;;16.41;49.13
48964;BME280;34776;48.180;16.420;2022-09-21T15:00:16;100485.91;;;16.93;48.37
48964;BME280;34776;48.180;16.420;2022-09-21T15:11:28;100488.56;;;16.66;48.42
48964;BME280;34776;48.180;16.420;2022-09-21T15:14:21;100497.09;;;16.58;48.70
48964;BME280;34776;48.180;16.420;2022-09-21T15:16:52;100491.41;;;16.35;49.08
48964;BME280;34776;48.180;16.420;2022-09-21T15:21:49;100489.94;;;16.02;49.59
48964;BME280;34776;48.180;16.420;2022-09-21T15:24:26;100493.38;;;15.76;50.60
48964;BME280;34776;48.180;16.420;2022-09-21T15:27:00;100497.25;;;15.70;50.84
48964;BME280;34776;48.180;16.420;2022-09-21T15:29:29;100493.81;;;15.68;50.97
48964;BME280;34776;48.180;16.420;2022-09-21T15:31:56;100496.22;;;15.58;50.90
48964;BME280;34776;48.180;16.420;2022-09-21T15:34:22;100487.78;;;15.50;50.82
48964;BME280;34776;48.180;16.420;2022-09-21T15:36:48;100482.03;;;15.42;50.95
48964;BME280;34776;48.180;16.420;2022-09-21T15:39:27;100490.44;;;15.36;51.47
48964;BME280;34776;48.180;16.420;2022-09-21T15:44:35;100485.03;;;15.21;51.14
48964;BME280;34776;48.180;16.420;2022-09-21T15:47:09;100480.81;;;15.17;51.50
48964;BME280;34776;48.180;16.420;2022-09-21T15:49:40;100488.28;;;15.12;52.07
48964;BME280;34776;48.180;16.420;2022-09-21T15:54:45;100486.53;;;15.11;52.75
48964;BME280;34776;48.180;16.420;2022-09-21T16:00:05;100485.56;;;14.98;52.68